sensor_id;sensor_type;location;lat;lon;timestamp;P1;durP1;ratioP1;P2;durP2;ratioP2
28802;SDS011;15949;55.656;37.422;2023-04-30T00:00:15;24.80;;;11.60;;
28802;SDS011;15949;55.656;37.422;2023-04-30T00:05:21;22.95;;;12.02;;
28802;SDS011;15949;55.656;37.422;2023-04-30T00:10:26;25.85;;;14.88;;
28802;SDS011;15949;55.656;37.422;2023-04-30T00:15:32;28.48;;;15.18;;
28802;SDS011;15949;55.656;37.422;2023-04-30T00:20:38;30.63;;;14.68;;
28802;SDS011;15949;55.656;37.422;2023-04-30T00:25:43;29.50;;;15.13;;
28802;SDS011;15949;55.656;37.422;2023-04-30T00:30:49;23.40;;;14.35;;
28802;SDS011;15949;55.656;37.422;2023-04-30T00:35:55;28.70;;;15.35;;
28802;SDS011;15949;55.656;37.422;2023-04-30T00:41:01;34.40;;;16.77;;
28802;SDS011;15949;55.656;37.422;2023-04-30T00:46:06;31.60;;;15.88;;
28802;SDS011;15949;55.656;37.422;2023-04-30T00:51:12;29.67;;;16.65;;
28802;SDS011;15949;55.656;37.422;2023-04-30T00:56:18;34.00;;;17.92;;
28802;SDS011;15949;55.656;37.422;2023-04-30T01:01:24;33.80;;;18.27;;
28802;SDS011;15949;55.656;37.422;2023-04-30T01:06:32;29.65;;;18.40;;
28802;SDS011;15949;55.656;37.422;2023-04-30T01:17:02;31.80;;;16.20;;
28802;SDS011;15949;55.656;37.422;2023-04-30T01:32:53;31.60;;;15.88;;
28802;SDS011;15949;55.656;37.422;2023-04-30T01:43:37;30.08;;;16.63;;
28802;SDS011;15949;55.656;37.422;2023-04-30T01:54:08;32.50;;;17.63;;
28802;SDS011;15949;55.656;37.422;2023-04-30T01:59:27;30.80;;;17.80;;
28802;SDS011;15949;55.656;37.422;2023-04-30T02:04:33;31.88;;;19.88;;
28802;SDS011;15949;55.656;37.422;2023-04-30T02:09:38;37.38;;;19.88;;
28802;SDS011;15949;55.656;37.422;2023-04-30T02:14:44;38.45;;;21.63;;
28802;SDS011;15949;55.656;37.422;2023-04-30T02:19:50;32.17;;;19.33;;
28802;SDS011;15949;55.656;37.422;2023-04-30T02:24:55;32.95;;;20.05;;
28802;SDS011;15949;55.656;37.422;2023-04-30T02:30:01;37.25;;;20.75;;
28802;SDS011;15949;55.656;37.422;2023-04-30T02:35:08;34.85;;;20.42;;
28802;SDS011;15949;55.656;37.422;2023-04-30T02:40:14;40.63;;;21.90;;
28802;SDS011;15949;55.656;37.422;2023-04-30T02:45:20;40.28;;;22.20;;
28802;SDS011;15949;55.656;37.422;2023-04-30T02:50:25;38.03;;;21.95;;
28802;SDS011;15949;55.656;37.422;2023-04-30T02:55:31;36.15;;;20.02;;
28802;SDS011;15949;55.656;37.422;2023-04-30T03:00:37;35.92;;;19.40;;
28802;SDS011;15949;55.656;37.422;2023-04-30T03:05:43;32.22;;;20.67;;
28802;SDS011;15949;55.656;37.422;2023-04-30T03:10:48;36.63;;;20.05;;
28802;SDS011;15949;55.656;37.422;2023-04-30T03:15:57;39.53;;;22.13;;
28802;SDS011;15949;55.656;37.422;2023-04-30T03:21:04;39.72;;;21.13;;
28802;SDS011;15949;55.656;37.422;2023-04-30T03:26:10;32.55;;;19.83;;
28802;SDS011;15949;55.656;37.422;2023-04-30T03:31:15;35.33;;;20.05;;
28802;SDS011;15949;55.656;37.422;2023-04-30T03:36:22;36.85;;;19.05;;
28802;SDS011;15949;55.656;37.422;2023-04-30T03:41:28;30.48;;;16.90;;
28802;SDS011;15949;55.656;37.422;2023-04-30T03:46:34;31.45;;;16.73;;
28802;SDS011;15949;55.656;37.422;2023-04-30T03:51:40;39.45;;;17.73;;
28802;SDS011;15949;55.656;37.422;2023-04-30T03:56:46;38.55;;;18.25;;
28802;SDS011;15949;55.656;37.422;2023-04-30T04:01:51;35.05;;;18.08;;
28802;SDS011;15949;55.656;37.422;2023-04-30T04:06:57;40.13;;;16.38;;
28802;SDS011;15949;55.656;37.422;2023-04-30T04:12:03;30.50;;;14.95;;
28802;SDS011;15949;55.656;37.422;2023-04-30T04:17:10;31.38;;;13.52;;
28802;SDS011;15949;55.656;37.422;2023-04-30T04:22:15;25.77;;;13.23;;
28802;SDS011;15949;55.656;37.422;2023-04-30T04:27:21;27.35;;;13.35;;
28802;SDS011;15949;55.656;37.422;2023-04-30T04:32:27;27.60;;;12.25;;
28802;SDS011;15949;55.656;37.422;2023-04-30T04:37:34;23.90;;;12.70;;
28802;SDS011;15949;55.656;37.422;2023-04-30T04:42:40;23.27;;;11.90;;
28802;SDS011;15949;55.656;37.422;2023-04-30T04:47:46;24.23;;;11.43;;
28802;SDS011;15949;55.656;37.422;2023-04-30T04:52:52;28.48;;;11.60;;
28802;SDS011;15949;55.656;37.422;2023-04-30T04:57:58;19.63;;;10.98;;
28802;SDS011;15949;55.656;37.422;2023-04-30T05:03:03;18.25;;;9.00;;
28802;SDS011;15949;55.656;37.422;2023-04-30T05:08:09;11.93;;;7.40;;
28802;SDS011;15949;55.656;37.422;2023-04-30T05:13:15;11.20;;;7.15;;
28802;SDS011;15949;55.656;37.422;2023-04-30T05:18:21;19.45;;;8.65;;
28802;SDS011;15949;55.656;37.422;2023-04-30T05:23:26;16.15;;;9.30;;
28802;SDS011;15949;55.656;37.422;2023-04-30T05:28:32;15.30;;;9.23;;
28802;SDS011;15949;55.656;37.422;2023-04-30T05:33:38;14.77;;;10.30;;
28802;SDS011;15949;55.656;37.422;2023-04-30T05:38:45;20.90;;;11.57;;
28802;SDS011;15949;55.656;37.422;2023-04-30T05:43:51;19.33;;;10.80;;
28802;SDS011;15949;55.656;37.422;2023-04-30T05:48:56;16.33;;;9.23;;
28802;SDS011;15949;55.656;37.422;2023-04-30T05:54:02;17.85;;;9.85;;
28802;SDS011;15949;55.656;37.422;2023-04-30T05:59:08;14.25;;;8.52;;
28802;SDS011;15949;55.656;37.422;2023-04-30T06:04:14;22.58;;;8.15;;
28802;SDS011;15949;55.656;37.422;2023-04-30T06:09:19;13.85;;;7.88;;
28802;SDS011;15949;55.656;37.422;2023-04-30T06:14:25;17.13;;;8.30;;
28802;SDS011;15949;55.656;37.422;2023-04-30T06:19:31;15.65;;;8.43;;
28802;SDS011;15949;55.656;37.422;2023-04-30T06:24:37;15.60;;;7.97;;
28802;SDS011;15949;55.656;37.422;2023-04-30T06:29:43;14.60;;;8.05;;
28802;SDS011;15949;55.656;37.422;2023-04-30T06:34:48;14.02;;;7.03;;
28802;SDS011;15949;55.656;37.422;2023-04-30T06:39:55;9.57;;;6.32;;
28802;SDS011;15949;55.656;37.422;2023-04-30T06:45:01;11.65;;;5.97;;
28802;SDS011;15949;55.656;37.422;2023-04-30T06:50:07;8.55;;;6.18;;
28802;SDS011;15949;55.656;37.422;2023-04-30T06:55:13;12.40;;;5.40;;
28802;SDS011;15949;55.656;37.422;2023-04-30T07:00:20;16.83;;;4.97;;
28802;SDS011;15949;55.656;37.422;2023-04-30T07:05:25;9.68;;;4.60;;
28802;SDS011;15949;55.656;37.422;2023-04-30T07:10:31;9.77;;;4.05;;
28802;SDS011;15949;55.656;37.422;2023-04-30T07:15:37;18.13;;;4.68;;
28802;SDS011;15949;55.656;37.422;2023-04-30T07:20:43;9.75;;;3.85;;
28802;SDS011;15949;55.656;37.422;2023-04-30T07:25:49;10.88;;;3.90;;
28802;SDS011;15949;55.656;37.422;2023-04-30T07:30:54;11.20;;;3.70;;
28802;SDS011;15949;55.656;37.422;2023-04-30T07:36:00;7.32;;;3.20;;
28802;SDS011;15949;55.656;37.422;2023-04-30T07:41:05;10.25;;;3.40;;
28802;SDS011;15949;55.656;37.422;2023-04-30T07:46:12;11.48;;;3.85;;
28802;SDS011;15949;55.656;37.422;2023-04-30T07:51:17;8.20;;;3.85;;
28802;SDS011;15949;55.656;37.422;2023-04-30T07:56:23;7.57;;;3.05;;
28802;SDS011;15949;55.656;37.422;2023-04-30T08:01:29;14.15;;;3.38;;
28802;SDS011;15949;55.656;37.422;2023-04-30T08:06:34;9.82;;;2.78;;
28802;SDS011;15949;55.656;37.422;2023-04-30T08:11:40;10.52;;;2.70;;
28802;SDS011;15949;55.656;37.422;2023-04-30T08:16:46;5.18;;;2.22;;
28802;SDS011;15949;55.656;37.422;2023-04-30T08:21:52;6.57;;;2.50;;
28802;SDS011;15949;55.656;37.422;2023-04-30T08:26:57;8.00;;;2.53;;
28802;SDS011;15949;55.656;37.422;2023-04-30T08:32:05;4.75;;;2.47;;
28802;SDS011;15949;55.656;37.422;2023-04-30T08:37:10;7.85;;;2.47;;
28802;SDS011;15949;55.656;37.422;2023-04-30T08:42:16;4.68;;;2.60;;
28802;SDS011;15949;55.656;37.422;2023-04-30T08:47:25;7.57;;;2.73;;
28802;SDS011;15949;55.656;37.422;2023-04-30T08:52:33;8.30;;;2.88;;
28802;SDS011;15949;55.656;37.422;2023-04-30T08:57:42;13.55;;;2.53;;
28802;SDS011;15949;55.656;37.422;2023-04-30T09:02:47;6.00;;;2.42;;
28802;SDS011;15949;55.656;37.422;2023-04-30T09:07:54;7.85;;;2.78;;
28802;SDS011;15949;55.656;37.422;2023-04-30T09:18:07;5.85;;;2.50;;
28802;SDS011;15949;55.656;37.422;2023-04-30T09:23:21;6.20;;;2.53;;
28802;SDS011;15949;55.656;37.422;2023-04-30T09:28:27;3.30;;;2.35;;
28802;SDS011;15949;55.656;37.422;2023-04-30T09:33:44;4.70;;;2.50;;
28802;SDS011;15949;55.656;37.422;2023-04-30T09:38:51;9.98;;;2.38;;
28802;SDS011;15949;55.656;37.422;2023-04-30T09:43:57;6.95;;;2.20;;
28802;SDS011;15949;55.656;37.422;2023-04-30T09:49:03;8.00;;;2.60;;
28802;SDS011;15949;55.656;37.422;2023-04-30T09:54:10;6.32;;;2.60;;
28802;SDS011;15949;55.656;37.422;2023-04-30T09:59:17;6.13;;;2.22;;
28802;SDS011;15949;55.656;37.422;2023-04-30T10:04:28;8.68;;;2.40;;
28802;SDS011;15949;55.656;37.422;2023-04-30T10:09:43;8.67;;;2.33;;
28802;SDS011;15949;55.656;37.422;2023-04-30T10:15:14;5.60;;;1.90;;
28802;SDS011;15949;55.656;37.422;2023-04-30T10:20:21;6.60;;;2.33;;
28802;SDS011;15949;55.656;37.422;2023-04-30T10:25:28;3.60;;;2.13;;
28802;SDS011;15949;55.656;37.422;2023-04-30T10:30:34;6.47;;;1.77;;
28802;SDS011;15949;55.656;37.422;2023-04-30T10:35:44;3.80;;;1.98;;
28802;SDS011;15949;55.656;37.422;2023-04-30T10:41:05;5.82;;;2.65;;
28802;SDS011;15949;55.656;37.422;2023-04-30T10:46:20;7.50;;;2.70;;
28802;SDS011;15949;55.656;37.422;2023-04-30T10:51:43;5.88;;;2.00;;
28802;SDS011;15949;55.656;37.422;2023-04-30T10:56:53;6.55;;;1.95;;
28802;SDS011;15949;55.656;37.422;2023-04-30T11:02:14;8.13;;;1.80;;
28802;SDS011;15949;55.656;37.422;2023-04-30T11:07:24;3.42;;;1.85;;
28802;SDS011;15949;55.656;37.422;2023-04-30T11:12:30;11.63;;;2.05;;
28802;SDS011;15949;55.656;37.422;2023-04-30T11:17:35;3.80;;;1.70;;
28802;SDS011;15949;55.656;37.422;2023-04-30T11:22:42;10.88;;;2.05;;
28802;SDS011;15949;55.656;37.422;2023-04-30T11:27:49;6.82;;;2.05;;
28802;SDS011;15949;55.656;37.422;2023-04-30T11:32:58;12.07;;;2.33;;
28802;SDS011;15949;55.656;37.422;2023-04-30T11:38:04;5.57;;;2.00;;
28802;SDS011;15949;55.656;37.422;2023-04-30T11:43:24;7.82;;;1.83;;
28802;SDS011;15949;55.656;37.422;2023-04-30T11:48:31;6.43;;;2.10;;
28802;SDS011;15949;55.656;37.422;2023-04-30T11:53:38;4.07;;;1.90;;
28802;SDS011;15949;55.656;37.422;2023-04-30T11:58:44;5.28;;;1.90;;
28802;SDS011;15949;55.656;37.422;2023-04-30T12:03:50;3.60;;;2.10;;
28802;SDS011;15949;55.656;37.422;2023-04-30T12:08:59;11.02;;;2.17;;
28802;SDS011;15949;55.656;37.422;2023-04-30T12:14:09;5.93;;;1.80;;
28802;SDS011;15949;55.656;37.422;2023-04-30T12:19:16;6.88;;;2.03;;
28802;SDS011;15949;55.656;37.422;2023-04-30T12:24:22;7.00;;;1.88;;
28802;SDS011;15949;55.656;37.422;2023-04-30T12:29:31;10.73;;;2.40;;
28802;SDS011;15949;55.656;37.422;2023-04-30T12:34:37;8.05;;;2.20;;
28802;SDS011;15949;55.656;37.422;2023-04-30T12:39:42;7.28;;;2.22;;
28802;SDS011;15949;55.656;37.422;2023-04-30T12:44:48;7.43;;;2.00;;
28802;SDS011;15949;55.656;37.422;2023-04-30T12:49:54;5.80;;;2.30;;
28802;SDS011;15949;55.656;37.422;2023-04-30T12:55:16;5.68;;;2.00;;
28802;SDS011;15949;55.656;37.422;2023-04-30T13:00:22;8.60;;;2.70;;
28802;SDS011;15949;55.656;37.422;2023-04-30T13:05:27;5.47;;;2.40;;
28802;SDS011;15949;55.656;37.422;2023-04-30T13:10:33;4.05;;;2.28;;
28802;SDS011;15949;55.656;37.422;2023-04-30T13:15:39;5.97;;;2.50;;
28802;SDS011;15949;55.656;37.422;2023-04-30T13:20:45;8.10;;;2.63;;
28802;SDS011;15949;55.656;37.422;2023-04-30T13:25:50;3.95;;;2.40;;
28802;SDS011;15949;55.656;37.422;2023-04-30T13:30:56;6.70;;;2.80;;
28802;SDS011;15949;55.656;37.422;2023-04-30T13:36:01;5.05;;;2.50;;
28802;SDS011;15949;55.656;37.422;2023-04-30T13:41:07;11.40;;;3.00;;
28802;SDS011;15949;55.656;37.422;2023-04-30T13:46:13;6.63;;;3.05;;
28802;SDS011;15949;55.656;37.422;2023-04-30T13:51:19;7.05;;;2.72;;
28802;SDS011;15949;55.656;37.422;2023-04-30T13:56:25;5.88;;;3.13;;
28802;SDS011;15949;55.656;37.422;2023-04-30T14:01:30;10.55;;;3.00;;
28802;SDS011;15949;55.656;37.422;2023-04-30T14:06:37;5.68;;;3.10;;
28802;SDS011;15949;55.656;37.422;2023-04-30T14:11:43;5.65;;;3.58;;
28802;SDS011;15949;55.656;37.422;2023-04-30T14:16:48;8.70;;;4.20;;
28802;SDS011;15949;55.656;37.422;2023-04-30T14:21:54;7.70;;;3.60;;
28802;SDS011;15949;55.656;37.422;2023-04-30T14:27:00;5.70;;;3.17;;
28802;SDS011;15949;55.656;37.422;2023-04-30T14:32:07;7.45;;;3.42;;
28802;SDS011;15949;55.656;37.422;2023-04-30T14:37:13;14.88;;;4.07;;
28802;SDS011;15949;55.656;37.422;2023-04-30T14:42:20;10.57;;;4.20;;
28802;SDS011;15949;55.656;37.422;2023-04-30T14:47:26;8.02;;;3.90;;
28802;SDS011;15949;55.656;37.422;2023-04-30T14:52:32;13.18;;;4.03;;
28802;SDS011;15949;55.656;37.422;2023-04-30T14:57:38;8.43;;;3.80;;
28802;SDS011;15949;55.656;37.422;2023-04-30T15:02:43;9.20;;;3.85;;
28802;SDS011;15949;55.656;37.422;2023-04-30T15:07:49;9.50;;;3.30;;
28802;SDS011;15949;55.656;37.422;2023-04-30T15:12:55;4.80;;;2.80;;
28802;SDS011;15949;55.656;37.422;2023-04-30T15:18:00;6.55;;;3.25;;
28802;SDS011;15949;55.656;37.422;2023-04-30T15:23:08;8.57;;;3.38;;
28802;SDS011;15949;55.656;37.422;2023-04-30T15:28:13;8.40;;;3.35;;
28802;SDS011;15949;55.656;37.422;2023-04-30T15:33:19;9.73;;;2.97;;
28802;SDS011;15949;55.656;37.422;2023-04-30T15:38:25;8.10;;;3.35;;
28802;SDS011;15949;55.656;37.422;2023-04-30T15:43:31;6.53;;;3.65;;
28802;SDS011;15949;55.656;37.422;2023-04-30T15:48:37;5.57;;;3.25;;
28802;SDS011;15949;55.656;37.422;2023-04-30T15:53:43;7.43;;;3.15;;
28802;SDS011;15949;55.656;37.422;2023-04-30T15:58:48;6.68;;;3.13;;
28802;SDS011;15949;55.656;37.422;2023-04-30T16:03:54;7.25;;;3.20;;
28802;SDS011;15949;55.656;37.422;2023-04-30T16:09:00;6.97;;;3.83;;
28802;SDS011;15949;55.656;37.422;2023-04-30T16:14:10;8.18;;;4.05;;
28802;SDS011;15949;55.656;37.422;2023-04-30T16:19:16;7.15;;;3.97;;
28802;SDS011;15949;55.656;37.422;2023-04-30T16:24:22;5.22;;;3.47;;
28802;SDS011;15949;55.656;37.422;2023-04-30T16:29:28;6.65;;;4.15;;
28802;SDS011;15949;55.656;37.422;2023-04-30T16:34:33;6.32;;;3.83;;
28802;SDS011;15949;55.656;37.422;2023-04-30T16:39:39;7.60;;;3.88;;
28802;SDS011;15949;55.656;37.422;2023-04-30T16:44:45;9.85;;;4.50;;
28802;SDS011;15949;55.656;37.422;2023-04-30T16:49:50;8.80;;;5.15;;
28802;SDS011;15949;55.656;37.422;2023-04-30T16:54:56;7.97;;;4.72;;
28802;SDS011;15949;55.656;37.422;2023-04-30T17:00:02;6.45;;;4.18;;
28802;SDS011;15949;55.656;37.422;2023-04-30T17:05:08;11.25;;;4.90;;
28802;SDS011;15949;55.656;37.422;2023-04-30T17:10:15;11.57;;;4.88;;
28802;SDS011;15949;55.656;37.422;2023-04-30T17:15:21;10.95;;;5.72;;
28802;SDS011;15949;55.656;37.422;2023-04-30T17:20:27;10.93;;;6.18;;
28802;SDS011;15949;55.656;37.422;2023-04-30T17:25:33;12.50;;;5.75;;
28802;SDS011;15949;55.656;37.422;2023-04-30T17:30:39;10.18;;;7.32;;
28802;SDS011;15949;55.656;37.422;2023-04-30T17:35:46;12.30;;;7.38;;
28802;SDS011;15949;55.656;37.422;2023-04-30T17:40:51;20.67;;;9.00;;
28802;SDS011;15949;55.656;37.422;2023-04-30T17:45:57;12.75;;;8.20;;
28802;SDS011;15949;55.656;37.422;2023-04-30T17:51:03;19.40;;;12.10;;
28802;SDS011;15949;55.656;37.422;2023-04-30T17:56:09;15.55;;;8.80;;
28802;SDS011;15949;55.656;37.422;2023-04-30T18:01:16;12.95;;;7.40;;
28802;SDS011;15949;55.656;37.422;2023-04-30T18:06:22;9.95;;;6.28;;
28802;SDS011;15949;55.656;37.422;2023-04-30T18:11:28;10.43;;;6.22;;
28802;SDS011;15949;55.656;37.422;2023-04-30T18:16:33;10.43;;;5.90;;
28802;SDS011;15949;55.656;37.422;2023-04-30T18:21:40;8.60;;;6.28;;
28802;SDS011;15949;55.656;37.422;2023-04-30T18:26:46;10.98;;;6.40;;
28802;SDS011;15949;55.656;37.422;2023-04-30T18:31:52;11.45;;;6.82;;
28802;SDS011;15949;55.656;37.422;2023-04-30T18:36:57;12.07;;;7.68;;
28802;SDS011;15949;55.656;37.422;2023-04-30T18:42:03;10.88;;;7.53;;
28802;SDS011;15949;55.656;37.422;2023-04-30T18:47:08;11.90;;;8.45;;
28802;SDS011;15949;55.656;37.422;2023-04-30T18:52:15;13.70;;;9.30;;
28802;SDS011;15949;55.656;37.422;2023-04-30T18:57:20;19.80;;;10.95;;
28802;SDS011;15949;55.656;37.422;2023-04-30T19:02:26;19.08;;;11.00;;
28802;SDS011;15949;55.656;37.422;2023-04-30T19:07:32;15.88;;;9.27;;
28802;SDS011;15949;55.656;37.422;2023-04-30T19:12:38;12.55;;;7.70;;
28802;SDS011;15949;55.656;37.422;2023-04-30T19:17:43;11.25;;;6.97;;
28802;SDS011;15949;55.656;37.422;2023-04-30T19:22:49;11.50;;;7.45;;
28802;SDS011;15949;55.656;37.422;2023-04-30T19:27:54;9.65;;;6.82;;
28802;SDS011;15949;55.656;37.422;2023-04-30T19:33:00;13.68;;;7.68;;
28802;SDS011;15949;55.656;37.422;2023-04-30T19:38:06;10.32;;;6.70;;
28802;SDS011;15949;55.656;37.422;2023-04-30T19:43:12;10.27;;;7.95;;
28802;SDS011;15949;55.656;37.422;2023-04-30T19:48:18;12.77;;;8.88;;
28802;SDS011;15949;55.656;37.422;2023-04-30T19:53:24;10.15;;;7.75;;
28802;SDS011;15949;55.656;37.422;2023-04-30T19:58:29;11.15;;;7.00;;
28802;SDS011;15949;55.656;37.422;2023-04-30T20:03:35;8.77;;;6.72;;
28802;SDS011;15949;55.656;37.422;2023-04-30T20:08:41;11.20;;;7.45;;
28802;SDS011;15949;55.656;37.422;2023-04-30T20:13:46;9.65;;;6.07;;
28802;SDS011;15949;55.656;37.422;2023-04-30T20:18:52;10.05;;;7.82;;
28802;SDS011;15949;55.656;37.422;2023-04-30T20:23:57;12.75;;;8.13;;
28802;SDS011;15949;55.656;37.422;2023-04-30T20:29:04;9.35;;;7.70;;
28802;SDS011;15949;55.656;37.422;2023-04-30T20:34:09;10.82;;;7.78;;
28802;SDS011;15949;55.656;37.422;2023-04-30T20:39:15;9.25;;;6.68;;
28802;SDS011;15949;55.656;37.422;2023-04-30T20:44:21;8.55;;;6.28;;
28802;SDS011;15949;55.656;37.422;2023-04-30T20:49:27;11.00;;;6.90;;
28802;SDS011;15949;55.656;37.422;2023-04-30T20:54:32;14.13;;;8.63;;
28802;SDS011;15949;55.656;37.422;2023-04-30T20:59:38;11.95;;;8.30;;
28802;SDS011;15949;55.656;37.422;2023-04-30T21:04:43;11.00;;;8.35;;
28802;SDS011;15949;55.656;37.422;2023-04-30T21:09:49;11.30;;;8.48;;
28802;SDS011;15949;55.656;37.422;2023-04-30T21:14:55;10.20;;;7.93;;
28802;SDS011;15949;55.656;37.422;2023-04-30T21:20:01;11.05;;;9.05;;
28802;SDS011;15949;55.656;37.422;2023-04-30T21:25:08;10.85;;;8.43;;
28802;SDS011;15949;55.656;37.422;2023-04-30T21:30:16;9.65;;;7.45;;
28802;SDS011;15949;55.656;37.422;2023-04-30T21:35:23;12.00;;;9.27;;
28802;SDS011;15949;55.656;37.422;2023-04-30T21:40:31;14.77;;;9.00;;
28802;SDS011;15949;55.656;37.422;2023-04-30T21:45:37;10.43;;;8.13;;
28802;SDS011;15949;55.656;37.422;2023-04-30T21:50:43;8.90;;;7.60;;
28802;SDS011;15949;55.656;37.422;2023-04-30T21:55:49;10.63;;;7.72;;
28802;SDS011;15949;55.656;37.422;2023-04-30T22:00:55;8.63;;;7.63;;
28802;SDS011;15949;55.656;37.422;2023-04-30T22:06:00;12.77;;;9.52;;
28802;SDS011;15949;55.656;37.422;2023-04-30T22:11:06;15.00;;;12.43;;
28802;SDS011;15949;55.656;37.422;2023-04-30T22:16:11;13.90;;;10.93;;
28802;SDS011;15949;55.656;37.422;2023-04-30T22:21:17;14.30;;;10.93;;
28802;SDS011;15949;55.656;37.422;2023-04-30T22:26:23;17.27;;;12.93;;
28802;SDS011;15949;55.656;37.422;2023-04-30T22:31:29;18.67;;;12.52;;
28802;SDS011;15949;55.656;37.422;2023-04-30T22:36:34;13.63;;;11.63;;
28802;SDS011;15949;55.656;37.422;2023-04-30T22:41:40;15.55;;;13.52;;
28802;SDS011;15949;55.656;37.422;2023-04-30T22:46:50;17.67;;;13.68;;
28802;SDS011;15949;55.656;37.422;2023-04-30T22:51:56;17.20;;;14.13;;
28802;SDS011;15949;55.656;37.422;2023-04-30T22:57:02;19.55;;;15.75;;
28802;SDS011;15949;55.656;37.422;2023-04-30T23:02:08;20.67;;;15.88;;
28802;SDS011;15949;55.656;37.422;2023-04-30T23:07:13;19.35;;;15.05;;
28802;SDS011;15949;55.656;37.422;2023-04-30T23:12:19;19.73;;;15.02;;
28802;SDS011;15949;55.656;37.422;2023-04-30T23:17:25;17.63;;;14.48;;
28802;SDS011;15949;55.656;37.422;2023-04-30T23:22:30;17.33;;;14.45;;
28802;SDS011;15949;55.656;37.422;2023-04-30T23:27:36;15.95;;;14.23;;
28802;SDS011;15949;55.656;37.422;2023-04-30T23:32:42;19.05;;;15.27;;
28802;SDS011;15949;55.656;37.422;2023-04-30T23:37:47;15.25;;;13.07;;
28802;SDS011;15949;55.656;37.422;2023-04-30T23:42:53;16.75;;;14.32;;
28802;SDS011;15949;55.656;37.422;2023-04-30T23:47:58;17.38;;;13.32;;
28802;SDS011;15949;55.656;37.422;2023-04-30T23:53:04;16.80;;;13.25;;
28802;SDS011;15949;55.656;37.422;2023-04-30T23:58:10;16.40;;;11.93;;
